Marinicki — 9HWU9 — position and weather

sailwx.info

Track history (hours):
 
Tides and Currents Weather Stations Pressure Air Temp Water Temp Dewpoint Dewpoint Depression Visibility Wind Speed Wind Dir Waves Ship Positions

Marinicki

Last reported at 2015-Sep-02 10:33 UTC. Time now 2015-Sep-02 10:38 UTC.
Position N 43°34' W 005°41'.

Length 225 m; draft 8.7 m.

Type: Cargo ship. MMSI: 249650000.

Date/timePositionNaut miles runAvg speedWind from/ knotsBaromVisibWave heightAir tempDewpointWater temp
2015-Sep-02 10:33N 43°34' W 005°41'0 0.0
2015-Sep-02 09:21N 43°34' W 005°41'0 0.0
2015-Sep-02 08:15N 43°34' W 005°41'0 0.0
2015-Sep-02 07:27N 43°34' W 005°41'0 0.0
2015-Sep-02 06:27N 43°34' W 005°41'0 0.0
2015-Sep-02 05:15N 43°34' W 005°41'0 0.0
2015-Sep-02 04:21N 43°34' W 005°41'0 0.0
2015-Sep-02 03:27N 43°34' W 005°41'0 0.0
2015-Sep-02 02:33N 43°34' W 005°41'0 0.0
2015-Sep-02 01:27N 43°34' W 005°41'0 0.0
2015-Sep-02 00:33N 43°34' W 005°41'0 0.0
2015-Sep-01 23:27N 43°34' W 005°41'0 0.0
2015-Sep-01 22:33N 43°34' W 005°41'0 0.0
2015-Sep-01 21:27N 43°34' W 005°41'0 0.0
2015-Sep-01 20:27N 43°34' W 005°41'0 0.0
2015-Sep-01 19:33N 43°34' W 005°41'0 0.0
2015-Sep-01 18:33N 43°34' W 005°41'0 0.0
2015-Sep-01 17:33N 43°34' W 005°41'0 0.0
2015-Sep-01 16:21N 43°34' W 005°41'0 0.0
2015-Sep-01 15:33N 43°34' W 005°41'0 0.0
2015-Sep-01 14:21N 43°34' W 005°41'0 0.0
2015-Sep-01 13:33N 43°34' W 005°41'0 0.0
2015-Sep-01 12:33N 43°34' W 005°41'0 0.0
2015-Sep-01 11:33N 43°34' W 005°41'0 0.0
2015-Sep-01 10:33N 43°34' W 005°41'0 0.0
2015-Sep-01 09:15N 43°34' W 005°41'0 0.0
2015-Sep-01 08:33N 43°34' W 005°41'0 0.0
2015-Sep-01 07:27N 43°34' W 005°41'0 0.0
2015-Sep-01 06:33N 43°34' W 005°41'0 0.0
2015-Sep-01 05:09N 43°34' W 005°41'0 0.0
2015-Sep-01 04:15N 43°34' W 005°41'0 0.0
2015-Sep-01 03:33N 43°34' W 005°41'0 0.0
2015-Sep-01 02:33N 43°34' W 005°41'0 0.0
2015-Sep-01 01:33N 43°34' W 005°41'0 0.0
2015-Sep-01 00:33N 43°34' W 005°41'0 0.0
2015-Aug-31 23:27N 43°34' W 005°41'0 0.0
2015-Aug-31 22:33N 43°34' W 005°41'0 0.0
2015-Aug-31 21:15N 43°34' W 005°41'0 0.0
2015-Aug-31 20:27N 43°34' W 005°41'0 0.0
2015-Aug-31 19:27N 43°34' W 005°41'0 0.0
2015-Aug-31 18:21N 43°34' W 005°41'0 0.0
2015-Aug-31 17:15N 43°34' W 005°41'0 0.0
2015-Aug-31 16:32N 43°34' W 005°41'2 2.4
2015-Aug-31 15:32N 43°36' W 005°40'1 0.8
2015-Aug-31 14:33N 43°37' W 005°41'0 0.0
2015-Aug-31 13:33N 43°37' W 005°41'1 1.2
2015-Aug-31 12:33N 43°38' W 005°41'6 6.1
2015-Aug-31 11:33N 43°44' W 005°41'9 9.0
2015-Aug-31 10:33N 43°53' W 005°42'  
Track history (hours):
 
Tides and Currents Weather Stations Pressure Air Temp Water Temp Dewpoint Dewpoint Depression Visibility Wind Speed Wind Dir Waves Ship Positions

Marinicki

Last reported at 2015-Sep-02 10:33 UTC. Time now 2015-Sep-02 10:38 UTC.
Position N 43°34' W 005°41'.

Length 225 m; draft 8.7 m.

Type: Cargo ship. MMSI: 249650000.

Date/timePositionNaut miles runAvg speedWind from/ knotsBaromVisibWave heightAir tempDewpointWater temp
2015-Sep-02 10:33N 43°34' W 005°41'0 0.0
2015-Sep-02 09:21N 43°34' W 005°41'0 0.0
2015-Sep-02 08:15N 43°34' W 005°41'0 0.0
2015-Sep-02 07:27N 43°34' W 005°41'0 0.0
2015-Sep-02 06:27N 43°34' W 005°41'0 0.0
2015-Sep-02 05:15N 43°34' W 005°41'0 0.0
2015-Sep-02 04:21N 43°34' W 005°41'0 0.0
2015-Sep-02 03:27N 43°34' W 005°41'0 0.0
2015-Sep-02 02:33N 43°34' W 005°41'0 0.0
2015-Sep-02 01:27N 43°34' W 005°41'0 0.0
2015-Sep-02 00:33N 43°34' W 005°41'0 0.0
2015-Sep-01 23:27N 43°34' W 005°41'0 0.0
2015-Sep-01 22:33N 43°34' W 005°41'0 0.0
2015-Sep-01 21:27N 43°34' W 005°41'0 0.0
2015-Sep-01 20:27N 43°34' W 005°41'0 0.0
2015-Sep-01 19:33N 43°34' W 005°41'0 0.0
2015-Sep-01 18:33N 43°34' W 005°41'0 0.0
2015-Sep-01 17:33N 43°34' W 005°41'0 0.0
2015-Sep-01 16:21N 43°34' W 005°41'0 0.0
2015-Sep-01 15:33N 43°34' W 005°41'0 0.0
2015-Sep-01 14:21N 43°34' W 005°41'0 0.0
2015-Sep-01 13:33N 43°34' W 005°41'0 0.0
2015-Sep-01 12:33N 43°34' W 005°41'0 0.0
2015-Sep-01 11:33N 43°34' W 005°41'0 0.0
2015-Sep-01 10:33N 43°34' W 005°41'0 0.0
2015-Sep-01 09:15N 43°34' W 005°41'0 0.0
2015-Sep-01 08:33N 43°34' W 005°41'0 0.0
2015-Sep-01 07:27N 43°34' W 005°41'0 0.0
2015-Sep-01 06:33N 43°34' W 005°41'0 0.0
2015-Sep-01 05:09N 43°34' W 005°41'0 0.0
2015-Sep-01 04:15N 43°34' W 005°41'0 0.0
2015-Sep-01 03:33N 43°34' W 005°41'0 0.0
2015-Sep-01 02:33N 43°34' W 005°41'0 0.0
2015-Sep-01 01:33N 43°34' W 005°41'0 0.0
2015-Sep-01 00:33N 43°34' W 005°41'0 0.0
2015-Aug-31 23:27N 43°34' W 005°41'0 0.0
2015-Aug-31 22:33N 43°34' W 005°41'0 0.0
2015-Aug-31 21:15N 43°34' W 005°41'0 0.0
2015-Aug-31 20:27N 43°34' W 005°41'0 0.0
2015-Aug-31 19:27N 43°34' W 005°41'0 0.0
2015-Aug-31 18:21N 43°34' W 005°41'0 0.0
2015-Aug-31 17:15N 43°34' W 005°41'0 0.0
2015-Aug-31 16:32N 43°34' W 005°41'2 2.4
2015-Aug-31 15:32N 43°36' W 005°40'1 0.8
2015-Aug-31 14:33N 43°37' W 005°41'0 0.0
2015-Aug-31 13:33N 43°37' W 005°41'1 1.2
2015-Aug-31 12:33N 43°38' W 005°41'6 6.1
2015-Aug-31 11:33N 43°44' W 005°41'9 9.0
2015-Aug-31 10:33N 43°53' W 005°42'  

Dump ship's entire track history